sensor_id;sensor_type;location;lat;lon;timestamp;temperature;humidity
34877;DHT22;21086;44.780;17.194;2023-07-31T00:01:21;20.30;1.00
34877;DHT22;21086;44.780;17.194;2023-07-31T00:03:49;20.20;1.00
34877;DHT22;21086;44.780;17.194;2023-07-31T00:06:16;20.20;1.00
34877;DHT22;21086;44.780;17.194;2023-07-31T00:08:43;20.20;1.00
34877;DHT22;21086;44.780;17.194;2023-07-31T00:11:10;20.20;1.00
34877;DHT22;21086;44.780;17.194;2023-07-31T00:13:38;20.20;1.00
34877;DHT22;21086;44.780;17.194;2023-07-31T00:16:05;20.10;1.00
34877;DHT22;21086;44.780;17.194;2023-07-31T00:18:32;20.00;1.00
34877;DHT22;21086;44.780;17.194;2023-07-31T00:20:59;20.20;1.00
34877;DHT22;21086;44.780;17.194;2023-07-31T00:23:26;20.20;1.00
34877;DHT22;21086;44.780;17.194;2023-07-31T00:25:53;20.20;1.00
34877;DHT22;21086;44.780;17.194;2023-07-31T00:28:20;20.10;1.00
34877;DHT22;21086;44.780;17.194;2023-07-31T00:30:47;20.20;1.00
34877;DHT22;21086;44.780;17.194;2023-07-31T00:33:15;20.20;1.00
34877;DHT22;21086;44.780;17.194;2023-07-31T00:35:42;20.30;1.00
34877;DHT22;21086;44.780;17.194;2023-07-31T00:38:09;20.40;1.00
34877;DHT22;21086;44.780;17.194;2023-07-31T00:40:36;20.60;1.00
34877;DHT22;21086;44.780;17.194;2023-07-31T00:43:04;20.60;1.00
34877;DHT22;21086;44.780;17.194;2023-07-31T00:45:32;20.50;1.00
34877;DHT22;21086;44.780;17.194;2023-07-31T00:48:00;20.40;1.00
34877;DHT22;21086;44.780;17.194;2023-07-31T00:50:28;20.20;1.00
34877;DHT22;21086;44.780;17.194;2023-07-31T00:52:56;20.10;1.00
34877;DHT22;21086;44.780;17.194;2023-07-31T00:55:23;19.90;1.00
34877;DHT22;21086;44.780;17.194;2023-07-31T00:57:50;19.90;1.00
34877;DHT22;21086;44.780;17.194;2023-07-31T01:00:19;20.00;1.00
34877;DHT22;21086;44.780;17.194;2023-07-31T01:02:50;20.00;1.00
34877;DHT22;21086;44.780;17.194;2023-07-31T01:05:29;20.00;1.00
34877;DHT22;21086;44.780;17.194;2023-07-31T01:08:12;20.00;1.00
34877;DHT22;21086;44.780;17.194;2023-07-31T01:11:00;20.00;1.00
34877;DHT22;21086;44.780;17.194;2023-07-31T01:13:29;20.00;1.00
34877;DHT22;21086;44.780;17.194;2023-07-31T01:15:56;19.90;1.00
34877;DHT22;21086;44.780;17.194;2023-07-31T01:18:23;20.00;1.00
34877;DHT22;21086;44.780;17.194;2023-07-31T01:20:57;20.00;1.00
34877;DHT22;21086;44.780;17.194;2023-07-31T01:26:28;19.90;1.00
34877;DHT22;21086;44.780;17.194;2023-07-31T01:31:39;19.80;1.00
34877;DHT22;21086;44.780;17.194;2023-07-31T01:34:09;19.80;1.00
34877;DHT22;21086;44.780;17.194;2023-07-31T01:36:37;19.80;1.00
34877;DHT22;21086;44.780;17.194;2023-07-31T01:39:04;19.90;1.00
34877;DHT22;21086;44.780;17.194;2023-07-31T01:41:31;19.90;1.00
34877;DHT22;21086;44.780;17.194;2023-07-31T01:43:58;19.80;1.00
34877;DHT22;21086;44.780;17.194;2023-07-31T01:46:25;19.70;1.00
34877;DHT22;21086;44.780;17.194;2023-07-31T01:48:53;19.70;1.00
34877;DHT22;21086;44.780;17.194;2023-07-31T01:51:20;19.90;1.00
34877;DHT22;21086;44.780;17.194;2023-07-31T01:53:47;19.80;1.00
34877;DHT22;21086;44.780;17.194;2023-07-31T01:56:14;19.80;1.00
34877;DHT22;21086;44.780;17.194;2023-07-31T01:58:41;19.70;1.00
34877;DHT22;21086;44.780;17.194;2023-07-31T02:01:08;19.70;1.00
34877;DHT22;21086;44.780;17.194;2023-07-31T02:03:35;19.60;1.00
34877;DHT22;21086;44.780;17.194;2023-07-31T02:06:02;19.70;1.00
34877;DHT22;21086;44.780;17.194;2023-07-31T02:08:29;19.70;1.00
34877;DHT22;21086;44.780;17.194;2023-07-31T02:10:57;19.60;1.00
34877;DHT22;21086;44.780;17.194;2023-07-31T02:13:24;19.50;1.00
34877;DHT22;21086;44.780;17.194;2023-07-31T02:15:51;19.60;1.00
34877;DHT22;21086;44.780;17.194;2023-07-31T02:18:18;19.50;1.00
34877;DHT22;21086;44.780;17.194;2023-07-31T02:20:49;19.60;1.00
34877;DHT22;21086;44.780;17.194;2023-07-31T02:23:18;19.50;1.00
34877;DHT22;21086;44.780;17.194;2023-07-31T02:25:46;19.60;1.00
34877;DHT22;21086;44.780;17.194;2023-07-31T02:28:14;19.90;1.00
34877;DHT22;21086;44.780;17.194;2023-07-31T02:30:44;19.90;1.00
34877;DHT22;21086;44.780;17.194;2023-07-31T02:33:13;19.80;1.00
34877;DHT22;21086;44.780;17.194;2023-07-31T02:35:41;19.90;1.00
34877;DHT22;21086;44.780;17.194;2023-07-31T02:38:08;19.80;1.00
34877;DHT22;21086;44.780;17.194;2023-07-31T02:40:35;19.70;1.00
34877;DHT22;21086;44.780;17.194;2023-07-31T02:43:02;19.60;1.00
34877;DHT22;21086;44.780;17.194;2023-07-31T02:45:29;19.50;1.00
34877;DHT22;21086;44.780;17.194;2023-07-31T02:47:56;19.50;1.00
34877;DHT22;21086;44.780;17.194;2023-07-31T02:50:23;19.50;1.00
34877;DHT22;21086;44.780;17.194;2023-07-31T02:52:50;19.60;1.00
34877;DHT22;21086;44.780;17.194;2023-07-31T02:55:17;19.50;1.00
34877;DHT22;21086;44.780;17.194;2023-07-31T02:57:45;19.40;1.00
34877;DHT22;21086;44.780;17.194;2023-07-31T03:00:12;19.40;1.00
34877;DHT22;21086;44.780;17.194;2023-07-31T03:02:39;19.30;1.00
34877;DHT22;21086;44.780;17.194;2023-07-31T03:05:06;19.30;1.00
34877;DHT22;21086;44.780;17.194;2023-07-31T03:07:33;19.30;1.00
34877;DHT22;21086;44.780;17.194;2023-07-31T03:10:00;19.20;1.00
34877;DHT22;21086;44.780;17.194;2023-07-31T03:12:27;19.10;1.00
34877;DHT22;21086;44.780;17.194;2023-07-31T03:14:55;19.00;1.00
34877;DHT22;21086;44.780;17.194;2023-07-31T03:17:22;19.00;1.00
34877;DHT22;21086;44.780;17.194;2023-07-31T03:19:49;19.00;1.00
34877;DHT22;21086;44.780;17.194;2023-07-31T03:22:16;18.90;1.00
34877;DHT22;21086;44.780;17.194;2023-07-31T03:24:43;19.00;1.00
34877;DHT22;21086;44.780;17.194;2023-07-31T03:27:10;19.10;1.00
34877;DHT22;21086;44.780;17.194;2023-07-31T03:29:37;19.10;1.00
34877;DHT22;21086;44.780;17.194;2023-07-31T03:32:04;19.10;1.00
34877;DHT22;21086;44.780;17.194;2023-07-31T03:34:31;19.10;1.00
34877;DHT22;21086;44.780;17.194;2023-07-31T03:36:58;18.90;1.00
34877;DHT22;21086;44.780;17.194;2023-07-31T03:39:26;19.00;1.00
34877;DHT22;21086;44.780;17.194;2023-07-31T03:41:53;19.00;1.00
34877;DHT22;21086;44.780;17.194;2023-07-31T03:44:20;19.00;1.00
34877;DHT22;21086;44.780;17.194;2023-07-31T03:46:47;19.10;1.00
34877;DHT22;21086;44.780;17.194;2023-07-31T03:49:14;19.00;1.00
34877;DHT22;21086;44.780;17.194;2023-07-31T03:51:41;19.00;1.00
34877;DHT22;21086;44.780;17.194;2023-07-31T03:54:08;19.10;1.00
34877;DHT22;21086;44.780;17.194;2023-07-31T03:56:35;19.20;1.00
34877;DHT22;21086;44.780;17.194;2023-07-31T03:59:02;19.10;1.00
34877;DHT22;21086;44.780;17.194;2023-07-31T04:01:29;19.30;1.00
34877;DHT22;21086;44.780;17.194;2023-07-31T04:03:57;19.30;1.00
34877;DHT22;21086;44.780;17.194;2023-07-31T04:06:23;19.30;1.00
34877;DHT22;21086;44.780;17.194;2023-07-31T04:08:52;19.40;1.00
34877;DHT22;21086;44.780;17.194;2023-07-31T04:11:19;19.30;1.00
34877;DHT22;21086;44.780;17.194;2023-07-31T04:13:45;19.50;1.00
34877;DHT22;21086;44.780;17.194;2023-07-31T04:16:12;19.60;1.00
34877;DHT22;21086;44.780;17.194;2023-07-31T04:18:40;19.50;1.00
34877;DHT22;21086;44.780;17.194;2023-07-31T04:21:07;19.40;1.00
34877;DHT22;21086;44.780;17.194;2023-07-31T04:23:34;19.40;1.00
34877;DHT22;21086;44.780;17.194;2023-07-31T04:26:01;19.40;1.00
34877;DHT22;21086;44.780;17.194;2023-07-31T04:28:28;19.50;1.00
34877;DHT22;21086;44.780;17.194;2023-07-31T04:30:55;19.50;1.00
34877;DHT22;21086;44.780;17.194;2023-07-31T04:33:22;19.50;1.00
34877;DHT22;21086;44.780;17.194;2023-07-31T04:35:53;19.60;1.00
34877;DHT22;21086;44.780;17.194;2023-07-31T04:38:21;19.80;1.00
34877;DHT22;21086;44.780;17.194;2023-07-31T04:40:49;19.90;1.00
34877;DHT22;21086;44.780;17.194;2023-07-31T04:43:16;20.10;1.00
34877;DHT22;21086;44.780;17.194;2023-07-31T04:45:47;20.30;1.00
34877;DHT22;21086;44.780;17.194;2023-07-31T04:48:17;20.50;1.00
34877;DHT22;21086;44.780;17.194;2023-07-31T04:50:44;20.40;1.00
34877;DHT22;21086;44.780;17.194;2023-07-31T04:53:12;20.20;1.00
34877;DHT22;21086;44.780;17.194;2023-07-31T04:55:39;20.10;1.00
34877;DHT22;21086;44.780;17.194;2023-07-31T04:58:06;20.30;1.00
34877;DHT22;21086;44.780;17.194;2023-07-31T05:00:34;20.50;1.00
34877;DHT22;21086;44.780;17.194;2023-07-31T05:03:01;20.70;1.00
34877;DHT22;21086;44.780;17.194;2023-07-31T05:05:28;20.90;1.00
34877;DHT22;21086;44.780;17.194;2023-07-31T05:07:55;21.00;1.00
34877;DHT22;21086;44.780;17.194;2023-07-31T05:10:22;20.90;1.00
34877;DHT22;21086;44.780;17.194;2023-07-31T05:12:49;20.80;1.00
34877;DHT22;21086;44.780;17.194;2023-07-31T05:15:16;20.90;1.00
34877;DHT22;21086;44.780;17.194;2023-07-31T05:17:44;21.00;1.00
34877;DHT22;21086;44.780;17.194;2023-07-31T05:20:11;21.00;1.00
34877;DHT22;21086;44.780;17.194;2023-07-31T05:22:38;21.10;1.00
34877;DHT22;21086;44.780;17.194;2023-07-31T05:25:05;21.30;1.00
34877;DHT22;21086;44.780;17.194;2023-07-31T05:27:32;21.30;1.00
34877;DHT22;21086;44.780;17.194;2023-07-31T05:29:59;21.20;1.00
34877;DHT22;21086;44.780;17.194;2023-07-31T05:32:26;21.20;1.00
34877;DHT22;21086;44.780;17.194;2023-07-31T05:34:54;21.10;1.00
34877;DHT22;21086;44.780;17.194;2023-07-31T05:37:22;21.30;1.00
34877;DHT22;21086;44.780;17.194;2023-07-31T05:39:49;21.30;1.00
34877;DHT22;21086;44.780;17.194;2023-07-31T05:42:17;21.30;1.00
34877;DHT22;21086;44.780;17.194;2023-07-31T05:44:44;21.40;1.00
34877;DHT22;21086;44.780;17.194;2023-07-31T05:47:11;21.40;1.00
34877;DHT22;21086;44.780;17.194;2023-07-31T05:49:38;21.40;1.00
34877;DHT22;21086;44.780;17.194;2023-07-31T05:52:06;21.40;1.00
34877;DHT22;21086;44.780;17.194;2023-07-31T05:54:33;21.30;1.00
34877;DHT22;21086;44.780;17.194;2023-07-31T05:57:00;21.20;1.00
34877;DHT22;21086;44.780;17.194;2023-07-31T05:59:27;21.10;1.00
34877;DHT22;21086;44.780;17.194;2023-07-31T06:01:54;21.00;1.00
34877;DHT22;21086;44.780;17.194;2023-07-31T06:04:21;20.90;1.00
34877;DHT22;21086;44.780;17.194;2023-07-31T06:06:51;20.80;1.00
34877;DHT22;21086;44.780;17.194;2023-07-31T06:09:18;20.80;1.00
34877;DHT22;21086;44.780;17.194;2023-07-31T06:11:46;20.80;1.00
34877;DHT22;21086;44.780;17.194;2023-07-31T06:14:14;20.90;1.00
34877;DHT22;21086;44.780;17.194;2023-07-31T06:16:41;21.00;1.00
34877;DHT22;21086;44.780;17.194;2023-07-31T06:19:08;21.10;1.00
34877;DHT22;21086;44.780;17.194;2023-07-31T06:21:36;21.20;1.00
34877;DHT22;21086;44.780;17.194;2023-07-31T06:24:05;21.30;1.00
34877;DHT22;21086;44.780;17.194;2023-07-31T06:26:32;21.50;1.00
34877;DHT22;21086;44.780;17.194;2023-07-31T06:29:00;21.70;1.00
34877;DHT22;21086;44.780;17.194;2023-07-31T06:31:26;21.90;1.00
34877;DHT22;21086;44.780;17.194;2023-07-31T06:33:54;22.00;1.00
34877;DHT22;21086;44.780;17.194;2023-07-31T06:36:21;22.10;1.00
34877;DHT22;21086;44.780;17.194;2023-07-31T06:38:48;22.20;1.00
34877;DHT22;21086;44.780;17.194;2023-07-31T06:41:15;22.20;1.00
34877;DHT22;21086;44.780;17.194;2023-07-31T06:43:42;22.30;1.00
34877;DHT22;21086;44.780;17.194;2023-07-31T06:46:09;22.40;1.00
34877;DHT22;21086;44.780;17.194;2023-07-31T06:48:36;22.50;1.00
34877;DHT22;21086;44.780;17.194;2023-07-31T06:51:04;22.60;1.00
34877;DHT22;21086;44.780;17.194;2023-07-31T06:53:31;22.70;99.90
34877;DHT22;21086;44.780;17.194;2023-07-31T06:55:58;22.90;99.90
34877;DHT22;21086;44.780;17.194;2023-07-31T06:58:26;23.00;99.90
34877;DHT22;21086;44.780;17.194;2023-07-31T07:00:53;23.20;99.90
34877;DHT22;21086;44.780;17.194;2023-07-31T07:03:20;23.30;99.90
34877;DHT22;21086;44.780;17.194;2023-07-31T07:05:47;23.50;99.90
34877;DHT22;21086;44.780;17.194;2023-07-31T07:08:14;23.60;99.90
34877;DHT22;21086;44.780;17.194;2023-07-31T07:10:41;23.70;99.90
34877;DHT22;21086;44.780;17.194;2023-07-31T07:13:08;23.80;99.90
34877;DHT22;21086;44.780;17.194;2023-07-31T07:15:36;24.00;99.90
34877;DHT22;21086;44.780;17.194;2023-07-31T07:18:03;24.10;99.90
34877;DHT22;21086;44.780;17.194;2023-07-31T07:20:30;24.20;99.90
34877;DHT22;21086;44.780;17.194;2023-07-31T07:22:57;24.30;99.90
34877;DHT22;21086;44.780;17.194;2023-07-31T07:25:24;24.40;99.90
34877;DHT22;21086;44.780;17.194;2023-07-31T07:27:51;24.40;99.90
34877;DHT22;21086;44.780;17.194;2023-07-31T07:30:18;24.30;99.90
34877;DHT22;21086;44.780;17.194;2023-07-31T07:32:47;24.30;99.90
34877;DHT22;21086;44.780;17.194;2023-07-31T07:35:14;24.40;99.90
34877;DHT22;21086;44.780;17.194;2023-07-31T07:37:41;24.60;99.90
34877;DHT22;21086;44.780;17.194;2023-07-31T07:40:08;24.60;99.90
34877;DHT22;21086;44.780;17.194;2023-07-31T07:42:36;24.60;99.90
34877;DHT22;21086;44.780;17.194;2023-07-31T07:45:03;24.70;99.90
34877;DHT22;21086;44.780;17.194;2023-07-31T07:47:30;24.80;99.90
34877;DHT22;21086;44.780;17.194;2023-07-31T07:49:57;24.80;99.90
34877;DHT22;21086;44.780;17.194;2023-07-31T07:52:24;24.90;99.90
34877;DHT22;21086;44.780;17.194;2023-07-31T07:54:51;24.80;99.90
34877;DHT22;21086;44.780;17.194;2023-07-31T07:57:18;24.80;99.90
34877;DHT22;21086;44.780;17.194;2023-07-31T07:59:45;24.90;99.90
34877;DHT22;21086;44.780;17.194;2023-07-31T08:02:12;24.90;99.90
34877;DHT22;21086;44.780;17.194;2023-07-31T08:04:39;25.00;99.90
34877;DHT22;21086;44.780;17.194;2023-07-31T08:07:06;25.20;99.90
34877;DHT22;21086;44.780;17.194;2023-07-31T08:09:34;25.30;99.90
34877;DHT22;21086;44.780;17.194;2023-07-31T08:12:01;25.40;99.90
34877;DHT22;21086;44.780;17.194;2023-07-31T08:14:30;25.30;99.90
34877;DHT22;21086;44.780;17.194;2023-07-31T08:16:59;25.50;99.90
34877;DHT22;21086;44.780;17.194;2023-07-31T08:19:26;25.50;99.90
34877;DHT22;21086;44.780;17.194;2023-07-31T08:21:55;25.50;99.90
34877;DHT22;21086;44.780;17.194;2023-07-31T08:24:24;25.50;99.90
34877;DHT22;21086;44.780;17.194;2023-07-31T08:26:51;25.60;99.90
34877;DHT22;21086;44.780;17.194;2023-07-31T08:29:18;25.60;99.90
34877;DHT22;21086;44.780;17.194;2023-07-31T08:31:45;25.70;99.90
34877;DHT22;21086;44.780;17.194;2023-07-31T08:34:12;25.90;99.90
34877;DHT22;21086;44.780;17.194;2023-07-31T08:36:39;26.00;99.90
34877;DHT22;21086;44.780;17.194;2023-07-31T08:39:07;25.90;99.90
34877;DHT22;21086;44.780;17.194;2023-07-31T08:41:38;25.90;99.90
34877;DHT22;21086;44.780;17.194;2023-07-31T08:44:08;26.00;99.90
34877;DHT22;21086;44.780;17.194;2023-07-31T08:46:37;26.20;99.90
34877;DHT22;21086;44.780;17.194;2023-07-31T08:49:05;26.40;99.90
34877;DHT22;21086;44.780;17.194;2023-07-31T08:51:36;26.40;99.90
34877;DHT22;21086;44.780;17.194;2023-07-31T08:54:03;26.50;99.90
34877;DHT22;21086;44.780;17.194;2023-07-31T08:56:33;26.80;99.90
34877;DHT22;21086;44.780;17.194;2023-07-31T08:59:02;26.90;99.90
34877;DHT22;21086;44.780;17.194;2023-07-31T09:01:35;26.90;99.90
34877;DHT22;21086;44.780;17.194;2023-07-31T09:04:04;27.00;99.90
34877;DHT22;21086;44.780;17.194;2023-07-31T09:06:32;27.10;99.90
34877;DHT22;21086;44.780;17.194;2023-07-31T09:09:00;27.20;99.90
34877;DHT22;21086;44.780;17.194;2023-07-31T09:11:27;27.20;99.90
34877;DHT22;21086;44.780;17.194;2023-07-31T09:13:57;27.30;99.90
34877;DHT22;21086;44.780;17.194;2023-07-31T09:16:28;27.20;99.90
34877;DHT22;21086;44.780;17.194;2023-07-31T09:18:59;26.90;99.90
34877;DHT22;21086;44.780;17.194;2023-07-31T09:21:28;26.90;99.90
34877;DHT22;21086;44.780;17.194;2023-07-31T09:23:57;27.00;99.90
34877;DHT22;21086;44.780;17.194;2023-07-31T09:26:35;27.30;99.90
34877;DHT22;21086;44.780;17.194;2023-07-31T09:29:06;27.40;99.90
34877;DHT22;21086;44.780;17.194;2023-07-31T09:31:44;27.60;99.90
34877;DHT22;21086;44.780;17.194;2023-07-31T09:34:12;27.70;99.90
34877;DHT22;21086;44.780;17.194;2023-07-31T09:39:13;27.90;99.90
34877;DHT22;21086;44.780;17.194;2023-07-31T09:41:43;28.00;99.90
34877;DHT22;21086;44.780;17.194;2023-07-31T09:44:11;28.10;99.90
34877;DHT22;21086;44.780;17.194;2023-07-31T09:46:38;28.20;99.90
34877;DHT22;21086;44.780;17.194;2023-07-31T09:49:10;28.30;99.90
34877;DHT22;21086;44.780;17.194;2023-07-31T09:51:39;28.50;99.90
34877;DHT22;21086;44.780;17.194;2023-07-31T09:54:16;28.60;99.90
34877;DHT22;21086;44.780;17.194;2023-07-31T09:56:45;28.60;99.90
34877;DHT22;21086;44.780;17.194;2023-07-31T09:59:14;28.30;99.90
34877;DHT22;21086;44.780;17.194;2023-07-31T10:01:42;28.30;99.90
34877;DHT22;21086;44.780;17.194;2023-07-31T10:04:11;28.40;99.90
34877;DHT22;21086;44.780;17.194;2023-07-31T10:06:40;28.60;99.90
34877;DHT22;21086;44.780;17.194;2023-07-31T10:09:11;28.70;99.90
34877;DHT22;21086;44.780;17.194;2023-07-31T10:11:42;28.70;99.90
34877;DHT22;21086;44.780;17.194;2023-07-31T10:14:11;28.90;99.90
34877;DHT22;21086;44.780;17.194;2023-07-31T10:16:40;29.00;99.90
34877;DHT22;21086;44.780;17.194;2023-07-31T10:19:08;29.20;99.90
34877;DHT22;21086;44.780;17.194;2023-07-31T10:21:37;29.10;99.90
34877;DHT22;21086;44.780;17.194;2023-07-31T10:24:05;29.20;99.90
34877;DHT22;21086;44.780;17.194;2023-07-31T10:26:32;29.20;99.90
34877;DHT22;21086;44.780;17.194;2023-07-31T10:29:02;29.30;99.90
34877;DHT22;21086;44.780;17.194;2023-07-31T10:31:30;29.40;99.90
34877;DHT22;21086;44.780;17.194;2023-07-31T10:33:58;29.50;99.90
34877;DHT22;21086;44.780;17.194;2023-07-31T10:36:29;29.60;99.90
34877;DHT22;21086;44.780;17.194;2023-07-31T10:38:56;29.50;99.90
34877;DHT22;21086;44.780;17.194;2023-07-31T10:41:30;29.50;99.90
34877;DHT22;21086;44.780;17.194;2023-07-31T10:44:01;29.60;99.90
34877;DHT22;21086;44.780;17.194;2023-07-31T10:46:28;29.70;99.90
34877;DHT22;21086;44.780;17.194;2023-07-31T10:49:02;29.60;99.90
34877;DHT22;21086;44.780;17.194;2023-07-31T10:51:33;29.70;99.90
34877;DHT22;21086;44.780;17.194;2023-07-31T10:54:16;29.50;99.90
34877;DHT22;21086;44.780;17.194;2023-07-31T10:56:46;29.60;99.90
34877;DHT22;21086;44.780;17.194;2023-07-31T10:59:16;29.70;99.90
34877;DHT22;21086;44.780;17.194;2023-07-31T11:01:55;29.70;99.90
34877;DHT22;21086;44.780;17.194;2023-07-31T11:04:29;29.50;99.90
34877;DHT22;21086;44.780;17.194;2023-07-31T11:07:00;29.60;99.90
34877;DHT22;21086;44.780;17.194;2023-07-31T11:09:33;29.80;99.90
34877;DHT22;21086;44.780;17.194;2023-07-31T11:12:00;29.90;99.90
34877;DHT22;21086;44.780;17.194;2023-07-31T11:14:27;29.80;99.90
34877;DHT22;21086;44.780;17.194;2023-07-31T11:16:54;29.90;99.90
34877;DHT22;21086;44.780;17.194;2023-07-31T11:19:24;30.20;99.90
34877;DHT22;21086;44.780;17.194;2023-07-31T11:21:52;30.40;99.90
34877;DHT22;21086;44.780;17.194;2023-07-31T11:24:20;30.40;99.90
34877;DHT22;21086;44.780;17.194;2023-07-31T11:26:53;30.60;99.90
34877;DHT22;21086;44.780;17.194;2023-07-31T11:29:20;30.60;99.90
34877;DHT22;21086;44.780;17.194;2023-07-31T11:31:53;30.90;99.90
34877;DHT22;21086;44.780;17.194;2023-07-31T11:34:20;31.10;99.90
34877;DHT22;21086;44.780;17.194;2023-07-31T11:36:54;31.40;99.90
34877;DHT22;21086;44.780;17.194;2023-07-31T11:39:22;31.60;99.90
34877;DHT22;21086;44.780;17.194;2023-07-31T11:41:49;31.50;99.90
34877;DHT22;21086;44.780;17.194;2023-07-31T11:44:17;31.50;99.90
34877;DHT22;21086;44.780;17.194;2023-07-31T11:46:57;31.50;99.90
34877;DHT22;21086;44.780;17.194;2023-07-31T11:49:25;31.70;99.90
34877;DHT22;21086;44.780;17.194;2023-07-31T11:51:52;32.00;99.90
34877;DHT22;21086;44.780;17.194;2023-07-31T11:54:20;32.30;99.90
34877;DHT22;21086;44.780;17.194;2023-07-31T11:56:47;32.40;99.90
34877;DHT22;21086;44.780;17.194;2023-07-31T11:59:16;32.50;99.90
34877;DHT22;21086;44.780;17.194;2023-07-31T12:01:43;32.80;99.90
34877;DHT22;21086;44.780;17.194;2023-07-31T12:04:10;32.80;99.90
34877;DHT22;21086;44.780;17.194;2023-07-31T12:06:38;33.20;99.90
34877;DHT22;21086;44.780;17.194;2023-07-31T12:09:07;33.30;99.90
34877;DHT22;21086;44.780;17.194;2023-07-31T12:11:47;33.40;99.90
34877;DHT22;21086;44.780;17.194;2023-07-31T12:14:25;33.50;99.90
34877;DHT22;21086;44.780;17.194;2023-07-31T12:17:00;33.60;99.90
34877;DHT22;21086;44.780;17.194;2023-07-31T12:19:28;33.70;99.90
34877;DHT22;21086;44.780;17.194;2023-07-31T12:21:58;34.10;99.90
34877;DHT22;21086;44.780;17.194;2023-07-31T12:24:29;34.60;99.90
34877;DHT22;21086;44.780;17.194;2023-07-31T12:26:56;34.50;99.90
34877;DHT22;21086;44.780;17.194;2023-07-31T12:29:23;34.90;99.90
34877;DHT22;21086;44.780;17.194;2023-07-31T12:31:50;34.80;99.90
34877;DHT22;21086;44.780;17.194;2023-07-31T12:34:18;34.80;99.90
34877;DHT22;21086;44.780;17.194;2023-07-31T12:36:47;34.60;99.90
34877;DHT22;21086;44.780;17.194;2023-07-31T12:39:17;34.60;99.90
34877;DHT22;21086;44.780;17.194;2023-07-31T12:41:44;34.80;99.90
34877;DHT22;21086;44.780;17.194;2023-07-31T12:44:12;34.60;99.90
34877;DHT22;21086;44.780;17.194;2023-07-31T12:46:39;34.60;99.90
34877;DHT22;21086;44.780;17.194;2023-07-31T12:49:07;35.40;99.90
34877;DHT22;21086;44.780;17.194;2023-07-31T12:51:34;35.90;99.90
34877;DHT22;21086;44.780;17.194;2023-07-31T12:54:02;36.10;99.90
34877;DHT22;21086;44.780;17.194;2023-07-31T12:56:28;36.10;99.90
34877;DHT22;21086;44.780;17.194;2023-07-31T12:58:55;35.90;99.90
34877;DHT22;21086;44.780;17.194;2023-07-31T13:01:22;36.10;99.90
34877;DHT22;21086;44.780;17.194;2023-07-31T13:03:50;36.60;99.90
34877;DHT22;21086;44.780;17.194;2023-07-31T13:06:17;36.90;99.90
34877;DHT22;21086;44.780;17.194;2023-07-31T13:08:44;36.30;99.90
34877;DHT22;21086;44.780;17.194;2023-07-31T13:11:11;35.70;99.90
34877;DHT22;21086;44.780;17.194;2023-07-31T13:13:38;35.40;99.90
34877;DHT22;21086;44.780;17.194;2023-07-31T13:16:05;35.10;99.90
34877;DHT22;21086;44.780;17.194;2023-07-31T13:18:33;34.60;99.90
34877;DHT22;21086;44.780;17.194;2023-07-31T13:20:59;34.10;99.90
34877;DHT22;21086;44.780;17.194;2023-07-31T13:23:26;34.20;99.90
34877;DHT22;21086;44.780;17.194;2023-07-31T13:25:54;34.10;99.90
34877;DHT22;21086;44.780;17.194;2023-07-31T13:28:21;34.00;99.90
34877;DHT22;21086;44.780;17.194;2023-07-31T13:30:48;34.10;99.90
34877;DHT22;21086;44.780;17.194;2023-07-31T13:33:15;34.10;99.90
34877;DHT22;21086;44.780;17.194;2023-07-31T13:36:02;34.00;99.90
34877;DHT22;21086;44.780;17.194;2023-07-31T13:38:29;33.90;99.90
34877;DHT22;21086;44.780;17.194;2023-07-31T13:40:56;33.90;99.90
34877;DHT22;21086;44.780;17.194;2023-07-31T13:43:23;33.90;99.90
34877;DHT22;21086;44.780;17.194;2023-07-31T13:45:50;34.20;99.90
34877;DHT22;21086;44.780;17.194;2023-07-31T13:48:18;34.60;99.90
34877;DHT22;21086;44.780;17.194;2023-07-31T13:50:45;34.60;99.90
34877;DHT22;21086;44.780;17.194;2023-07-31T13:53:12;34.30;99.90
34877;DHT22;21086;44.780;17.194;2023-07-31T13:55:39;33.80;99.90
34877;DHT22;21086;44.780;17.194;2023-07-31T13:58:07;33.70;99.90
34877;DHT22;21086;44.780;17.194;2023-07-31T14:00:34;33.60;99.90
34877;DHT22;21086;44.780;17.194;2023-07-31T14:03:02;33.60;99.90
34877;DHT22;21086;44.780;17.194;2023-07-31T14:05:29;33.40;99.90
34877;DHT22;21086;44.780;17.194;2023-07-31T14:07:57;33.10;99.90
34877;DHT22;21086;44.780;17.194;2023-07-31T14:10:24;32.90;99.90
34877;DHT22;21086;44.780;17.194;2023-07-31T14:12:51;32.80;99.90
34877;DHT22;21086;44.780;17.194;2023-07-31T14:15:18;33.00;99.90
34877;DHT22;21086;44.780;17.194;2023-07-31T14:17:45;33.10;99.90
34877;DHT22;21086;44.780;17.194;2023-07-31T14:20:13;33.80;99.90
34877;DHT22;21086;44.780;17.194;2023-07-31T14:22:40;35.10;99.90
34877;DHT22;21086;44.780;17.194;2023-07-31T14:25:07;35.50;99.90
34877;DHT22;21086;44.780;17.194;2023-07-31T14:27:37;35.40;99.90
34877;DHT22;21086;44.780;17.194;2023-07-31T14:30:04;35.80;99.90
34877;DHT22;21086;44.780;17.194;2023-07-31T14:32:32;36.90;99.90
34877;DHT22;21086;44.780;17.194;2023-07-31T14:34:59;39.10;99.90
34877;DHT22;21086;44.780;17.194;2023-07-31T14:37:26;42.50;99.90
34877;DHT22;21086;44.780;17.194;2023-07-31T14:39:54;46.20;99.90
34877;DHT22;21086;44.780;17.194;2023-07-31T14:42:21;45.30;99.90
34877;DHT22;21086;44.780;17.194;2023-07-31T14:44:48;43.80;99.90
34877;DHT22;21086;44.780;17.194;2023-07-31T14:47:15;41.60;99.90
34877;DHT22;21086;44.780;17.194;2023-07-31T14:49:42;40.00;99.90
34877;DHT22;21086;44.780;17.194;2023-07-31T14:52:09;39.20;99.90
34877;DHT22;21086;44.780;17.194;2023-07-31T14:54:36;41.00;99.90
34877;DHT22;21086;44.780;17.194;2023-07-31T14:57:04;44.40;99.90
34877;DHT22;21086;44.780;17.194;2023-07-31T14:59:31;46.90;99.90
34877;DHT22;21086;44.780;17.194;2023-07-31T15:01:58;46.40;99.90
34877;DHT22;21086;44.780;17.194;2023-07-31T15:04:25;47.90;99.90
34877;DHT22;21086;44.780;17.194;2023-07-31T15:06:53;48.00;99.90
34877;DHT22;21086;44.780;17.194;2023-07-31T15:09:20;47.00;99.90
34877;DHT22;21086;44.780;17.194;2023-07-31T15:11:47;45.10;99.90
34877;DHT22;21086;44.780;17.194;2023-07-31T15:14:15;44.20;99.90
34877;DHT22;21086;44.780;17.194;2023-07-31T15:16:43;43.50;99.90
34877;DHT22;21086;44.780;17.194;2023-07-31T15:19:10;44.80;99.90
34877;DHT22;21086;44.780;17.194;2023-07-31T15:21:38;46.80;99.90
34877;DHT22;21086;44.780;17.194;2023-07-31T15:24:05;49.30;99.90
34877;DHT22;21086;44.780;17.194;2023-07-31T15:26:32;50.20;99.90
34877;DHT22;21086;44.780;17.194;2023-07-31T15:29:04;50.80;99.90
34877;DHT22;21086;44.780;17.194;2023-07-31T15:31:35;51.20;99.90
34877;DHT22;21086;44.780;17.194;2023-07-31T15:34:03;51.70;99.90
34877;DHT22;21086;44.780;17.194;2023-07-31T15:36:30;51.30;99.90